Hood Army Air Field
KHLR : now visible

Airfield :











YOU CAN JOIN US ON...

 
LOGIN :

Register | Disclaimer

   EN    FR    IT 

 









Legend :    VFR   Marginal VFR   IFR   Intensive IFR   Very Intensive IFR
Visi :
Ceiling :
>= 8 km
>= 3000ft
5 to 8 km
1000 to 3000 ft
1500m to 5 km
500 to 1000 ft
800 to 1500m
200 to 500 ft
< 800m
< 200 ft
Symbols :   Thunderstorms  Fog  Heavy snow  Heavy precipitations  Wind > 20 kt






- Airport Elevation : 924 ft


KHLR - Hood Army Air Field

CURRENT METAR :
  • 231558Z AUTO 20013KT 10SM FEW340 30/23 A3000 RMK AO2 SLP147 T02970225

EXPIRED METARs :
  • 231458Z AUTO 18010KT 10SM SCT016 29/23 A3000 RMK AO2 SLP147 T02880234 52010
  • 231443Z AUTO 19009KT 10SM SCT013 SCT019 28/23 A3000 RMK AO2 SLP147
  • 231438Z AUTO 17011G15KT 10SM SCT012 BKN018 28/23 A3000 RMK AO2 BKN V SCT SLP147
  • 231423Z AUTO 19007KT 10SM SCT011 28/24 A3000 RMK AO2 SLP147
  • 231418Z AUTO 17006KT 10SM BKN011 28/24 A3000 RMK AO2 SLP147
  • 231408Z AUTO 17007KT 10SM SCT009 27/24 A3000 RMK AO2 SLP147
  • 231358Z AUTO 17006KT 10SM BKN008 26/24 A3000 RMK AO2 BKN V OVC SLP147 T02610238

TAF N/A
KZHU FIR / North America



MET'MAP, your aeronautical weather chart ! - Copyright ORBIFLY December 2007 - Disclaimer

ORBIFLY MET'MAP TEAM :

Programming & Development : Alexandra Zaïnal
Concept & original design : Baudouin d'Aumeries
Assistance for programming : Marc-Olivier Méhu
Technical & hardware support : Manuel Goepfert

Contact : metmap@orbifly.com




SOURCES & CREDITS :

   NOAA       Earth
Advisory